sensor_id;sensor_type;location;lat;lon;timestamp;P1;durP1;ratioP1;P2;durP2;ratioP2
41249;SDS011;26984;59.928;30.306;2023-05-14T00:00:56;25.40;;;10.88;;
41249;SDS011;26984;59.928;30.306;2023-05-14T00:03:24;23.08;;;10.52;;
41249;SDS011;26984;59.928;30.306;2023-05-14T00:05:53;26.63;;;10.55;;
41249;SDS011;26984;59.928;30.306;2023-05-14T00:08:21;18.50;;;10.50;;
41249;SDS011;26984;59.928;30.306;2023-05-14T00:13:16;12.02;;;7.53;;
41249;SDS011;26984;59.928;30.306;2023-05-14T00:15:44;16.67;;;8.07;;
41249;SDS011;26984;59.928;30.306;2023-05-14T00:18:12;14.77;;;8.07;;
41249;SDS011;26984;59.928;30.306;2023-05-14T00:23:09;22.60;;;8.73;;
41249;SDS011;26984;59.928;30.306;2023-05-14T00:25:37;14.77;;;8.15;;
41249;SDS011;26984;59.928;30.306;2023-05-14T00:30:32;16.70;;;8.00;;
41249;SDS011;26984;59.928;30.306;2023-05-14T00:35:28;16.52;;;7.97;;
41249;SDS011;26984;59.928;30.306;2023-05-14T00:40:25;18.60;;;8.48;;
41249;SDS011;26984;59.928;30.306;2023-05-14T00:42:53;18.77;;;8.57;;
41249;SDS011;26984;59.928;30.306;2023-05-14T00:45:22;15.80;;;8.60;;
41249;SDS011;26984;59.928;30.306;2023-05-14T00:47:50;24.52;;;9.68;;
41249;SDS011;26984;59.928;30.306;2023-05-14T00:50:19;16.27;;;9.60;;
41249;SDS011;26984;59.928;30.306;2023-05-14T00:52:47;21.05;;;9.80;;
41249;SDS011;26984;59.928;30.306;2023-05-14T00:55:16;23.20;;;9.57;;
41249;SDS011;26984;59.928;30.306;2023-05-14T00:57:46;22.42;;;9.05;;
41249;SDS011;26984;59.928;30.306;2023-05-14T01:00:16;21.35;;;9.50;;
41249;SDS011;26984;59.928;30.306;2023-05-14T01:02:44;15.95;;;7.88;;
41249;SDS011;26984;59.928;30.306;2023-05-14T01:07:42;11.73;;;8.02;;
41249;SDS011;26984;59.928;30.306;2023-05-14T01:10:18;13.20;;;7.75;;
41249;SDS011;26984;59.928;30.306;2023-05-14T01:12:54;14.52;;;7.90;;
41249;SDS011;26984;59.928;30.306;2023-05-14T01:15:29;14.93;;;7.83;;
41249;SDS011;26984;59.928;30.306;2023-05-14T01:18:00;12.80;;;7.88;;
41249;SDS011;26984;59.928;30.306;2023-05-14T01:20:31;12.05;;;6.13;;
41249;SDS011;26984;59.928;30.306;2023-05-14T01:25:28;11.43;;;5.90;;
41249;SDS011;26984;59.928;30.306;2023-05-14T01:27:57;11.55;;;6.35;;
41249;SDS011;26984;59.928;30.306;2023-05-14T01:30:30;10.35;;;6.28;;
41249;SDS011;26984;59.928;30.306;2023-05-14T01:33:04;10.27;;;5.90;;
41249;SDS011;26984;59.928;30.306;2023-05-14T01:35:33;13.60;;;6.18;;
41249;SDS011;26984;59.928;30.306;2023-05-14T01:38:03;7.30;;;5.78;;
41249;SDS011;26984;59.928;30.306;2023-05-14T01:40:33;12.80;;;5.82;;
41249;SDS011;26984;59.928;30.306;2023-05-14T01:43:03;10.02;;;5.93;;
41249;SDS011;26984;59.928;30.306;2023-05-14T01:45:33;10.27;;;6.00;;
41249;SDS011;26984;59.928;30.306;2023-05-14T01:48:02;9.68;;;6.35;;
41249;SDS011;26984;59.928;30.306;2023-05-14T01:50:31;10.75;;;5.65;;
41249;SDS011;26984;59.928;30.306;2023-05-14T01:55:28;7.82;;;5.45;;
41249;SDS011;26984;59.928;30.306;2023-05-14T01:57:56;9.68;;;6.05;;
41249;SDS011;26984;59.928;30.306;2023-05-14T02:02:51;10.57;;;5.93;;
41249;SDS011;26984;59.928;30.306;2023-05-14T02:05:19;6.45;;;5.38;;
41249;SDS011;26984;59.928;30.306;2023-05-14T02:10:15;10.18;;;5.18;;
41249;SDS011;26984;59.928;30.306;2023-05-14T02:12:49;8.07;;;5.47;;
41249;SDS011;26984;59.928;30.306;2023-05-14T02:15:16;9.13;;;5.45;;
41249;SDS011;26984;59.928;30.306;2023-05-14T02:17:44;10.38;;;5.40;;
41249;SDS011;26984;59.928;30.306;2023-05-14T02:22:41;12.05;;;5.80;;
41249;SDS011;26984;59.928;30.306;2023-05-14T02:25:11;10.32;;;5.47;;
41249;SDS011;26984;59.928;30.306;2023-05-14T02:30:08;8.32;;;5.07;;
41249;SDS011;26984;59.928;30.306;2023-05-14T02:32:38;11.25;;;5.45;;
41249;SDS011;26984;59.928;30.306;2023-05-14T02:37:33;8.18;;;5.82;;
41249;SDS011;26984;59.928;30.306;2023-05-14T02:42:29;10.55;;;5.28;;
41249;SDS011;26984;59.928;30.306;2023-05-14T02:44:57;7.55;;;6.05;;
41249;SDS011;26984;59.928;30.306;2023-05-14T02:47:27;10.05;;;6.40;;
41249;SDS011;26984;59.928;30.306;2023-05-14T02:49:55;9.20;;;6.38;;
41249;SDS011;26984;59.928;30.306;2023-05-14T02:54:50;8.02;;;6.28;;
41249;SDS011;26984;59.928;30.306;2023-05-14T02:59:46;12.45;;;7.00;;
41249;SDS011;26984;59.928;30.306;2023-05-14T03:04:43;13.65;;;7.05;;
41249;SDS011;26984;59.928;30.306;2023-05-14T03:07:10;11.65;;;7.47;;
41249;SDS011;26984;59.928;30.306;2023-05-14T03:12:06;11.27;;;7.20;;
41249;SDS011;26984;59.928;30.306;2023-05-14T03:14:34;12.55;;;7.20;;
41249;SDS011;26984;59.928;30.306;2023-05-14T03:19:30;13.00;;;7.55;;
41249;SDS011;26984;59.928;30.306;2023-05-14T03:24:27;11.45;;;7.75;;
41249;SDS011;26984;59.928;30.306;2023-05-14T03:26:54;16.05;;;7.47;;
41249;SDS011;26984;59.928;30.306;2023-05-14T03:31:50;15.82;;;7.50;;
41249;SDS011;26984;59.928;30.306;2023-05-14T03:34:19;15.85;;;6.78;;
41249;SDS011;26984;59.928;30.306;2023-05-14T03:39:16;11.90;;;7.35;;
41249;SDS011;26984;59.928;30.306;2023-05-14T03:41:44;11.30;;;7.82;;
41249;SDS011;26984;59.928;30.306;2023-05-14T03:44:13;12.13;;;7.18;;
41249;SDS011;26984;59.928;30.306;2023-05-14T03:46:41;13.18;;;7.63;;
41249;SDS011;26984;59.928;30.306;2023-05-14T03:49:09;11.00;;;6.95;;
41249;SDS011;26984;59.928;30.306;2023-05-14T03:54:05;11.23;;;6.85;;
41249;SDS011;26984;59.928;30.306;2023-05-14T03:56:35;10.95;;;6.60;;
41249;SDS011;26984;59.928;30.306;2023-05-14T03:59:02;11.80;;;7.05;;
41249;SDS011;26984;59.928;30.306;2023-05-14T04:01:31;14.77;;;6.82;;
41249;SDS011;26984;59.928;30.306;2023-05-14T04:06:26;7.85;;;6.45;;
41249;SDS011;26984;59.928;30.306;2023-05-14T04:11:22;10.00;;;5.93;;
41249;SDS011;26984;59.928;30.306;2023-05-14T04:13:54;10.90;;;6.10;;
41249;SDS011;26984;59.928;30.306;2023-05-14T04:16:22;10.98;;;5.78;;
41249;SDS011;26984;59.928;30.306;2023-05-14T04:21:17;8.85;;;5.38;;
41249;SDS011;26984;59.928;30.306;2023-05-14T04:23:45;9.68;;;5.15;;
41249;SDS011;26984;59.928;30.306;2023-05-14T04:26:13;8.77;;;5.43;;
41249;SDS011;26984;59.928;30.306;2023-05-14T04:31:10;11.13;;;5.38;;
41249;SDS011;26984;59.928;30.306;2023-05-14T04:33:38;7.20;;;4.82;;
41249;SDS011;26984;59.928;30.306;2023-05-14T04:38:34;8.80;;;4.60;;
41249;SDS011;26984;59.928;30.306;2023-05-14T04:41:02;9.38;;;5.78;;
41249;SDS011;26984;59.928;30.306;2023-05-14T04:43:31;6.55;;;4.65;;
41249;SDS011;26984;59.928;30.306;2023-05-14T04:48:28;8.73;;;5.03;;
41249;SDS011;26984;59.928;30.306;2023-05-14T04:50:56;9.70;;;5.30;;
41249;SDS011;26984;59.928;30.306;2023-05-14T04:55:51;7.25;;;5.20;;
41249;SDS011;26984;59.928;30.306;2023-05-14T05:00:48;10.18;;;5.53;;
41249;SDS011;26984;59.928;30.306;2023-05-14T05:03:16;8.70;;;4.93;;
41249;SDS011;26984;59.928;30.306;2023-05-14T05:08:13;11.30;;;5.00;;
41249;SDS011;26984;59.928;30.306;2023-05-14T05:10:41;8.25;;;4.60;;
41249;SDS011;26984;59.928;30.306;2023-05-14T05:15:36;8.20;;;5.05;;
41249;SDS011;26984;59.928;30.306;2023-05-14T05:20:32;13.25;;;5.78;;
41249;SDS011;26984;59.928;30.306;2023-05-14T05:23:01;12.15;;;5.25;;
41249;SDS011;26984;59.928;30.306;2023-05-14T05:25:29;14.07;;;5.65;;
41249;SDS011;26984;59.928;30.306;2023-05-14T05:30:24;9.50;;;5.60;;
41249;SDS011;26984;59.928;30.306;2023-05-14T05:32:52;9.13;;;5.78;;
41249;SDS011;26984;59.928;30.306;2023-05-14T05:35:22;13.93;;;6.07;;
41249;SDS011;26984;59.928;30.306;2023-05-14T05:40:19;13.45;;;6.22;;
41249;SDS011;26984;59.928;30.306;2023-05-14T05:42:47;12.05;;;6.22;;
41249;SDS011;26984;59.928;30.306;2023-05-14T05:45:20;10.93;;;5.57;;
41249;SDS011;26984;59.928;30.306;2023-05-14T05:47:48;14.50;;;4.47;;
41249;SDS011;26984;59.928;30.306;2023-05-14T05:50:16;8.43;;;4.57;;
41249;SDS011;26984;59.928;30.306;2023-05-14T05:52:44;8.90;;;4.60;;
41249;SDS011;26984;59.928;30.306;2023-05-14T05:55:15;8.65;;;5.20;;
41249;SDS011;26984;59.928;30.306;2023-05-14T05:57:46;9.10;;;5.00;;
41249;SDS011;26984;59.928;30.306;2023-05-14T06:00:14;8.50;;;4.85;;
41249;SDS011;26984;59.928;30.306;2023-05-14T06:02:42;9.90;;;5.22;;
41249;SDS011;26984;59.928;30.306;2023-05-14T06:05:11;18.80;;;4.97;;
41249;SDS011;26984;59.928;30.306;2023-05-14T06:07:42;10.13;;;4.75;;
41249;SDS011;26984;59.928;30.306;2023-05-14T06:10:10;7.35;;;5.18;;
41249;SDS011;26984;59.928;30.306;2023-05-14T06:15:07;7.43;;;4.80;;
41249;SDS011;26984;59.928;30.306;2023-05-14T06:17:37;17.95;;;6.43;;
41249;SDS011;26984;59.928;30.306;2023-05-14T06:20:06;8.27;;;4.85;;
41249;SDS011;26984;59.928;30.306;2023-05-14T06:22:34;8.95;;;5.43;;
41249;SDS011;26984;59.928;30.306;2023-05-14T06:25:03;9.35;;;5.22;;
41249;SDS011;26984;59.928;30.306;2023-05-14T06:27:32;10.00;;;6.38;;
41249;SDS011;26984;59.928;30.306;2023-05-14T06:30:01;11.57;;;5.63;;
41249;SDS011;26984;59.928;30.306;2023-05-14T06:32:32;11.35;;;6.35;;
41249;SDS011;26984;59.928;30.306;2023-05-14T06:35:00;13.30;;;6.07;;
41249;SDS011;26984;59.928;30.306;2023-05-14T06:37:28;13.13;;;5.60;;
41249;SDS011;26984;59.928;30.306;2023-05-14T06:39:56;13.35;;;6.13;;
41249;SDS011;26984;59.928;30.306;2023-05-14T06:42:25;12.68;;;6.35;;
41249;SDS011;26984;59.928;30.306;2023-05-14T06:44:57;20.80;;;6.43;;
41249;SDS011;26984;59.928;30.306;2023-05-14T06:47:25;25.83;;;6.95;;
41249;SDS011;26984;59.928;30.306;2023-05-14T06:49:54;11.52;;;5.63;;
41249;SDS011;26984;59.928;30.306;2023-05-14T06:52:23;20.55;;;6.60;;
41249;SDS011;26984;59.928;30.306;2023-05-14T06:54:51;13.82;;;5.70;;
41249;SDS011;26984;59.928;30.306;2023-05-14T06:57:19;10.68;;;5.03;;
41249;SDS011;26984;59.928;30.306;2023-05-14T06:59:47;9.30;;;4.88;;
41249;SDS011;26984;59.928;30.306;2023-05-14T07:02:15;15.00;;;5.85;;
41249;SDS011;26984;59.928;30.306;2023-05-14T07:04:43;10.85;;;5.53;;
41249;SDS011;26984;59.928;30.306;2023-05-14T07:07:13;10.43;;;4.70;;
41249;SDS011;26984;59.928;30.306;2023-05-14T07:09:45;13.88;;;5.28;;
41249;SDS011;26984;59.928;30.306;2023-05-14T07:12:13;11.25;;;4.85;;
41249;SDS011;26984;59.928;30.306;2023-05-14T07:14:41;6.50;;;4.80;;
41249;SDS011;26984;59.928;30.306;2023-05-14T07:17:09;9.73;;;4.50;;
41249;SDS011;26984;59.928;30.306;2023-05-14T07:19:37;10.15;;;4.65;;
41249;SDS011;26984;59.928;30.306;2023-05-14T07:22:05;7.65;;;4.70;;
41249;SDS011;26984;59.928;30.306;2023-05-14T07:24:35;11.05;;;4.47;;
41249;SDS011;26984;59.928;30.306;2023-05-14T07:27:03;7.68;;;4.18;;
41249;SDS011;26984;59.928;30.306;2023-05-14T07:29:31;7.80;;;4.55;;
41249;SDS011;26984;59.928;30.306;2023-05-14T07:32:00;9.38;;;5.20;;
41249;SDS011;26984;59.928;30.306;2023-05-14T07:34:28;6.15;;;4.70;;
41249;SDS011;26984;59.928;30.306;2023-05-14T07:36:56;10.43;;;5.10;;
41249;SDS011;26984;59.928;30.306;2023-05-14T07:39:24;9.57;;;5.15;;
41249;SDS011;26984;59.928;30.306;2023-05-14T07:41:53;8.65;;;5.20;;
41249;SDS011;26984;59.928;30.306;2023-05-14T07:44:21;8.32;;;5.10;;
41249;SDS011;26984;59.928;30.306;2023-05-14T07:46:49;12.05;;;6.20;;
41249;SDS011;26984;59.928;30.306;2023-05-14T07:49:17;9.77;;;6.00;;
41249;SDS011;26984;59.928;30.306;2023-05-14T07:51:45;9.80;;;5.20;;
41249;SDS011;26984;59.928;30.306;2023-05-14T07:54:13;8.73;;;4.72;;
41249;SDS011;26984;59.928;30.306;2023-05-14T07:56:41;11.13;;;4.70;;
41249;SDS011;26984;59.928;30.306;2023-05-14T07:59:11;8.68;;;5.32;;
41249;SDS011;26984;59.928;30.306;2023-05-14T08:01:38;10.60;;;4.93;;
41249;SDS011;26984;59.928;30.306;2023-05-14T08:04:06;11.07;;;5.00;;
41249;SDS011;26984;59.928;30.306;2023-05-14T08:06:36;11.20;;;4.70;;
41249;SDS011;26984;59.928;30.306;2023-05-14T08:09:04;8.68;;;4.65;;
41249;SDS011;26984;59.928;30.306;2023-05-14T08:11:32;13.00;;;4.72;;
41249;SDS011;26984;59.928;30.306;2023-05-14T08:14:00;14.10;;;5.07;;
41249;SDS011;26984;59.928;30.306;2023-05-14T08:16:29;11.27;;;5.45;;
41249;SDS011;26984;59.928;30.306;2023-05-14T08:18:57;10.65;;;4.50;;
41249;SDS011;26984;59.928;30.306;2023-05-14T08:21:25;10.48;;;5.45;;
41249;SDS011;26984;59.928;30.306;2023-05-14T08:23:54;9.88;;;4.93;;
41249;SDS011;26984;59.928;30.306;2023-05-14T08:26:22;7.32;;;4.80;;
41249;SDS011;26984;59.928;30.306;2023-05-14T08:28:50;8.32;;;4.60;;
41249;SDS011;26984;59.928;30.306;2023-05-14T08:31:19;12.55;;;4.85;;
41249;SDS011;26984;59.928;30.306;2023-05-14T08:33:48;10.52;;;4.60;;
41249;SDS011;26984;59.928;30.306;2023-05-14T08:36:16;8.02;;;4.78;;
41249;SDS011;26984;59.928;30.306;2023-05-14T08:38:44;14.57;;;4.35;;
41249;SDS011;26984;59.928;30.306;2023-05-14T08:41:12;6.75;;;4.40;;
41249;SDS011;26984;59.928;30.306;2023-05-14T08:43:43;6.57;;;4.50;;
41249;SDS011;26984;59.928;30.306;2023-05-14T08:46:22;8.20;;;4.03;;
41249;SDS011;26984;59.928;30.306;2023-05-14T08:48:53;9.73;;;4.47;;
41249;SDS011;26984;59.928;30.306;2023-05-14T08:51:24;8.32;;;4.25;;
41249;SDS011;26984;59.928;30.306;2023-05-14T08:53:53;6.40;;;3.97;;
41249;SDS011;26984;59.928;30.306;2023-05-14T08:56:21;4.38;;;3.95;;
41249;SDS011;26984;59.928;30.306;2023-05-14T08:58:51;10.57;;;4.25;;
41249;SDS011;26984;59.928;30.306;2023-05-14T09:01:19;5.45;;;4.10;;
41249;SDS011;26984;59.928;30.306;2023-05-14T09:03:47;6.22;;;3.95;;
41249;SDS011;26984;59.928;30.306;2023-05-14T09:06:18;7.50;;;4.05;;
41249;SDS011;26984;59.928;30.306;2023-05-14T09:08:47;6.18;;;4.70;;
41249;SDS011;26984;59.928;30.306;2023-05-14T09:11:18;9.80;;;4.60;;
41249;SDS011;26984;59.928;30.306;2023-05-14T09:13:46;5.55;;;4.30;;
41249;SDS011;26984;59.928;30.306;2023-05-14T09:16:13;5.57;;;4.35;;
41249;SDS011;26984;59.928;30.306;2023-05-14T09:18:43;9.80;;;4.43;;
41249;SDS011;26984;59.928;30.306;2023-05-14T09:21:12;9.60;;;5.30;;
41249;SDS011;26984;59.928;30.306;2023-05-14T09:23:43;7.18;;;4.75;;
41249;SDS011;26984;59.928;30.306;2023-05-14T09:26:15;7.75;;;4.57;;
41249;SDS011;26984;59.928;30.306;2023-05-14T09:28:43;8.85;;;4.60;;
41249;SDS011;26984;59.928;30.306;2023-05-14T09:31:11;5.30;;;4.30;;
41249;SDS011;26984;59.928;30.306;2023-05-14T09:33:39;7.75;;;4.35;;
41249;SDS011;26984;59.928;30.306;2023-05-14T09:36:07;10.02;;;4.78;;
41249;SDS011;26984;59.928;30.306;2023-05-14T09:38:35;7.13;;;4.20;;
41249;SDS011;26984;59.928;30.306;2023-05-14T09:41:05;5.47;;;4.07;;
41249;SDS011;26984;59.928;30.306;2023-05-14T09:43:33;5.40;;;3.78;;
41249;SDS011;26984;59.928;30.306;2023-05-14T09:46:01;6.07;;;3.58;;
41249;SDS011;26984;59.928;30.306;2023-05-14T09:48:28;6.85;;;3.55;;
41249;SDS011;26984;59.928;30.306;2023-05-14T09:50:56;5.75;;;3.35;;
41249;SDS011;26984;59.928;30.306;2023-05-14T09:53:24;6.32;;;3.63;;
41249;SDS011;26984;59.928;30.306;2023-05-14T09:55:52;7.38;;;3.65;;
41249;SDS011;26984;59.928;30.306;2023-05-14T09:58:23;6.07;;;3.75;;
41249;SDS011;26984;59.928;30.306;2023-05-14T10:00:51;5.90;;;3.47;;
41249;SDS011;26984;59.928;30.306;2023-05-14T10:03:21;7.15;;;3.92;;
41249;SDS011;26984;59.928;30.306;2023-05-14T10:05:52;5.13;;;4.13;;
41249;SDS011;26984;59.928;30.306;2023-05-14T10:08:25;5.45;;;3.72;;
41249;SDS011;26984;59.928;30.306;2023-05-14T10:10:57;4.57;;;3.80;;
41249;SDS011;26984;59.928;30.306;2023-05-14T10:13:32;5.43;;;3.72;;
41249;SDS011;26984;59.928;30.306;2023-05-14T10:16:07;5.55;;;3.80;;
41249;SDS011;26984;59.928;30.306;2023-05-14T10:18:39;5.18;;;3.78;;
41249;SDS011;26984;59.928;30.306;2023-05-14T10:21:10;5.72;;;3.78;;
41249;SDS011;26984;59.928;30.306;2023-05-14T10:23:41;11.63;;;4.10;;
41249;SDS011;26984;59.928;30.306;2023-05-14T10:26:09;8.40;;;4.40;;
41249;SDS011;26984;59.928;30.306;2023-05-14T10:28:39;8.30;;;4.32;;
41249;SDS011;26984;59.928;30.306;2023-05-14T10:31:10;6.00;;;3.88;;
41249;SDS011;26984;59.928;30.306;2023-05-14T10:33:49;9.15;;;4.53;;
41249;SDS011;26984;59.928;30.306;2023-05-14T10:36:17;7.53;;;3.83;;
41249;SDS011;26984;59.928;30.306;2023-05-14T10:38:47;8.57;;;4.10;;
41249;SDS011;26984;59.928;30.306;2023-05-14T10:41:22;5.80;;;4.50;;
41249;SDS011;26984;59.928;30.306;2023-05-14T10:43:51;4.70;;;4.20;;
41249;SDS011;26984;59.928;30.306;2023-05-14T10:46:19;5.93;;;4.63;;
41249;SDS011;26984;59.928;30.306;2023-05-14T10:48:47;7.88;;;4.43;;
41249;SDS011;26984;59.928;30.306;2023-05-14T10:51:16;5.35;;;4.20;;
41249;SDS011;26984;59.928;30.306;2023-05-14T10:53:45;8.13;;;4.53;;
41249;SDS011;26984;59.928;30.306;2023-05-14T10:56:14;8.15;;;4.30;;
41249;SDS011;26984;59.928;30.306;2023-05-14T10:58:43;5.75;;;4.18;;
41249;SDS011;26984;59.928;30.306;2023-05-14T11:01:12;6.20;;;4.75;;
41249;SDS011;26984;59.928;30.306;2023-05-14T11:03:41;7.40;;;4.75;;
41249;SDS011;26984;59.928;30.306;2023-05-14T11:06:10;7.03;;;4.28;;
41249;SDS011;26984;59.928;30.306;2023-05-14T11:08:39;5.95;;;4.50;;
41249;SDS011;26984;59.928;30.306;2023-05-14T11:11:08;6.88;;;4.65;;
41249;SDS011;26984;59.928;30.306;2023-05-14T11:13:36;6.18;;;4.50;;
41249;SDS011;26984;59.928;30.306;2023-05-14T11:16:05;11.18;;;4.63;;
41249;SDS011;26984;59.928;30.306;2023-05-14T11:18:35;8.73;;;5.15;;
41249;SDS011;26984;59.928;30.306;2023-05-14T11:21:05;7.43;;;5.07;;
41249;SDS011;26984;59.928;30.306;2023-05-14T11:23:33;7.97;;;5.00;;
41249;SDS011;26984;59.928;30.306;2023-05-14T11:26:03;6.20;;;5.40;;
41249;SDS011;26984;59.928;30.306;2023-05-14T11:28:31;8.48;;;5.32;;
41249;SDS011;26984;59.928;30.306;2023-05-14T11:30:59;10.73;;;5.35;;
41249;SDS011;26984;59.928;30.306;2023-05-14T11:33:27;7.38;;;4.47;;
41249;SDS011;26984;59.928;30.306;2023-05-14T11:35:57;6.40;;;5.10;;
41249;SDS011;26984;59.928;30.306;2023-05-14T11:38:25;8.93;;;5.53;;
41249;SDS011;26984;59.928;30.306;2023-05-14T11:40:53;11.20;;;5.50;;
41249;SDS011;26984;59.928;30.306;2023-05-14T11:43:21;8.18;;;4.90;;
41249;SDS011;26984;59.928;30.306;2023-05-14T11:45:50;7.13;;;4.88;;
41249;SDS011;26984;59.928;30.306;2023-05-14T11:48:19;10.85;;;4.95;;
41249;SDS011;26984;59.928;30.306;2023-05-14T11:50:48;7.57;;;5.05;;
41249;SDS011;26984;59.928;30.306;2023-05-14T11:53:23;7.50;;;5.20;;
41249;SDS011;26984;59.928;30.306;2023-05-14T11:55:52;8.88;;;5.97;;
41249;SDS011;26984;59.928;30.306;2023-05-14T11:58:22;9.40;;;5.10;;
41249;SDS011;26984;59.928;30.306;2023-05-14T12:00:51;6.15;;;4.80;;
41249;SDS011;26984;59.928;30.306;2023-05-14T12:03:22;7.15;;;5.35;;
41249;SDS011;26984;59.928;30.306;2023-05-14T12:05:55;5.97;;;5.18;;
41249;SDS011;26984;59.928;30.306;2023-05-14T12:08:26;8.20;;;5.28;;
41249;SDS011;26984;59.928;30.306;2023-05-14T12:10:56;5.45;;;4.88;;
41249;SDS011;26984;59.928;30.306;2023-05-14T12:13:26;7.35;;;5.72;;
41249;SDS011;26984;59.928;30.306;2023-05-14T12:15:56;6.63;;;5.05;;
41249;SDS011;26984;59.928;30.306;2023-05-14T12:18:26;11.52;;;7.00;;
41249;SDS011;26984;59.928;30.306;2023-05-14T12:20:55;6.80;;;4.97;;
41249;SDS011;26984;59.928;30.306;2023-05-14T12:23:30;21.65;;;9.52;;
41249;SDS011;26984;59.928;30.306;2023-05-14T12:26:03;9.25;;;5.78;;
41249;SDS011;26984;59.928;30.306;2023-05-14T12:28:33;7.90;;;4.82;;
41249;SDS011;26984;59.928;30.306;2023-05-14T12:31:02;7.00;;;4.93;;
41249;SDS011;26984;59.928;30.306;2023-05-14T12:33:30;6.32;;;5.55;;
41249;SDS011;26984;59.928;30.306;2023-05-14T12:35:59;6.63;;;4.72;;
41249;SDS011;26984;59.928;30.306;2023-05-14T12:38:29;5.30;;;4.88;;
41249;SDS011;26984;59.928;30.306;2023-05-14T12:40:58;5.60;;;4.88;;
41249;SDS011;26984;59.928;30.306;2023-05-14T12:43:27;5.65;;;4.65;;
41249;SDS011;26984;59.928;30.306;2023-05-14T12:45:57;7.00;;;5.22;;
41249;SDS011;26984;59.928;30.306;2023-05-14T12:48:25;9.10;;;5.10;;
41249;SDS011;26984;59.928;30.306;2023-05-14T12:50:54;11.32;;;5.18;;
41249;SDS011;26984;59.928;30.306;2023-05-14T12:53:23;5.75;;;5.15;;
41249;SDS011;26984;59.928;30.306;2023-05-14T12:55:53;8.57;;;5.78;;
41249;SDS011;26984;59.928;30.306;2023-05-14T12:58:21;12.82;;;5.88;;
41249;SDS011;26984;59.928;30.306;2023-05-14T13:00:49;8.35;;;5.00;;
41249;SDS011;26984;59.928;30.306;2023-05-14T13:03:17;7.00;;;5.47;;
41249;SDS011;26984;59.928;30.306;2023-05-14T13:05:45;10.18;;;5.85;;
41249;SDS011;26984;59.928;30.306;2023-05-14T13:08:13;16.48;;;8.88;;
41249;SDS011;26984;59.928;30.306;2023-05-14T13:10:42;11.20;;;6.30;;
41249;SDS011;26984;59.928;30.306;2023-05-14T13:13:13;6.90;;;5.40;;
41249;SDS011;26984;59.928;30.306;2023-05-14T13:15:42;7.28;;;5.55;;
41249;SDS011;26984;59.928;30.306;2023-05-14T13:18:11;6.97;;;5.63;;
41249;SDS011;26984;59.928;30.306;2023-05-14T13:20:39;6.20;;;5.32;;
41249;SDS011;26984;59.928;30.306;2023-05-14T13:23:08;5.57;;;4.82;;
41249;SDS011;26984;59.928;30.306;2023-05-14T13:25:36;14.80;;;7.78;;
41249;SDS011;26984;59.928;30.306;2023-05-14T13:28:05;11.85;;;7.13;;
41249;SDS011;26984;59.928;30.306;2023-05-14T13:30:34;7.43;;;5.55;;
41249;SDS011;26984;59.928;30.306;2023-05-14T13:33:02;10.65;;;4.90;;
41249;SDS011;26984;59.928;30.306;2023-05-14T13:35:32;6.57;;;4.82;;
41249;SDS011;26984;59.928;30.306;2023-05-14T13:38:00;7.30;;;4.97;;
41249;SDS011;26984;59.928;30.306;2023-05-14T13:40:30;7.70;;;5.35;;
41249;SDS011;26984;59.928;30.306;2023-05-14T13:42:59;8.73;;;5.13;;
41249;SDS011;26984;59.928;30.306;2023-05-14T13:45:28;6.88;;;5.45;;
41249;SDS011;26984;59.928;30.306;2023-05-14T13:47:57;9.93;;;5.82;;
41249;SDS011;26984;59.928;30.306;2023-05-14T13:50:26;5.55;;;5.05;;
41249;SDS011;26984;59.928;30.306;2023-05-14T13:52:54;5.72;;;4.50;;
41249;SDS011;26984;59.928;30.306;2023-05-14T13:55:22;6.82;;;4.90;;
41249;SDS011;26984;59.928;30.306;2023-05-14T13:57:50;5.72;;;5.22;;
41249;SDS011;26984;59.928;30.306;2023-05-14T14:00:18;7.22;;;5.40;;
41249;SDS011;26984;59.928;30.306;2023-05-14T14:02:47;8.45;;;5.45;;
41249;SDS011;26984;59.928;30.306;2023-05-14T14:05:16;10.40;;;6.40;;
41249;SDS011;26984;59.928;30.306;2023-05-14T14:07:44;7.45;;;5.55;;
41249;SDS011;26984;59.928;30.306;2023-05-14T14:10:12;7.00;;;5.13;;
41249;SDS011;26984;59.928;30.306;2023-05-14T14:12:40;5.35;;;4.85;;
41249;SDS011;26984;59.928;30.306;2023-05-14T14:15:09;7.38;;;4.85;;
41249;SDS011;26984;59.928;30.306;2023-05-14T14:17:40;7.30;;;5.70;;
41249;SDS011;26984;59.928;30.306;2023-05-14T14:20:10;8.75;;;4.65;;
41249;SDS011;26984;59.928;30.306;2023-05-14T14:22:44;5.53;;;5.03;;
41249;SDS011;26984;59.928;30.306;2023-05-14T14:25:15;5.75;;;4.90;;
41249;SDS011;26984;59.928;30.306;2023-05-14T14:27:43;9.50;;;6.22;;
41249;SDS011;26984;59.928;30.306;2023-05-14T14:30:12;6.10;;;5.53;;
41249;SDS011;26984;59.928;30.306;2023-05-14T14:32:42;6.10;;;4.88;;
41249;SDS011;26984;59.928;30.306;2023-05-14T14:35:11;8.65;;;5.35;;
41249;SDS011;26984;59.928;30.306;2023-05-14T14:37:39;5.78;;;5.22;;
41249;SDS011;26984;59.928;30.306;2023-05-14T14:40:10;6.60;;;5.18;;
41249;SDS011;26984;59.928;30.306;2023-05-14T14:42:38;9.02;;;5.00;;
41249;SDS011;26984;59.928;30.306;2023-05-14T14:45:08;7.20;;;4.10;;
41249;SDS011;26984;59.928;30.306;2023-05-14T14:47:36;5.72;;;5.20;;
41249;SDS011;26984;59.928;30.306;2023-05-14T14:50:10;10.20;;;5.28;;
41249;SDS011;26984;59.928;30.306;2023-05-14T14:52:40;6.68;;;4.75;;
41249;SDS011;26984;59.928;30.306;2023-05-14T14:55:11;7.20;;;5.10;;
41249;SDS011;26984;59.928;30.306;2023-05-14T14:57:40;9.50;;;5.47;;
41249;SDS011;26984;59.928;30.306;2023-05-14T15:00:09;5.75;;;4.22;;
41249;SDS011;26984;59.928;30.306;2023-05-14T15:02:38;8.15;;;4.93;;
41249;SDS011;26984;59.928;30.306;2023-05-14T15:05:08;9.30;;;5.00;;
41249;SDS011;26984;59.928;30.306;2023-05-14T15:07:36;5.25;;;4.63;;
41249;SDS011;26984;59.928;30.306;2023-05-14T15:10:05;8.57;;;4.70;;
41249;SDS011;26984;59.928;30.306;2023-05-14T15:12:35;5.75;;;4.60;;
41249;SDS011;26984;59.928;30.306;2023-05-14T15:15:04;5.97;;;4.90;;
41249;SDS011;26984;59.928;30.306;2023-05-14T15:17:33;5.05;;;4.43;;
41249;SDS011;26984;59.928;30.306;2023-05-14T15:20:00;7.47;;;4.80;;
41249;SDS011;26984;59.928;30.306;2023-05-14T15:22:29;5.97;;;4.45;;
41249;SDS011;26984;59.928;30.306;2023-05-14T15:24:59;7.90;;;4.75;;
41249;SDS011;26984;59.928;30.306;2023-05-14T15:27:27;7.68;;;4.78;;
41249;SDS011;26984;59.928;30.306;2023-05-14T15:29:57;6.80;;;5.30;;
41249;SDS011;26984;59.928;30.306;2023-05-14T15:32:25;8.88;;;5.50;;
41249;SDS011;26984;59.928;30.306;2023-05-14T15:34:53;10.32;;;5.38;;
41249;SDS011;26984;59.928;30.306;2023-05-14T15:37:22;7.78;;;4.97;;
41249;SDS011;26984;59.928;30.306;2023-05-14T15:39:50;5.85;;;4.68;;
41249;SDS011;26984;59.928;30.306;2023-05-14T15:42:18;6.05;;;5.07;;
41249;SDS011;26984;59.928;30.306;2023-05-14T15:44:46;11.48;;;6.38;;
41249;SDS011;26984;59.928;30.306;2023-05-14T15:47:15;7.97;;;5.25;;
41249;SDS011;26984;59.928;30.306;2023-05-14T15:49:43;8.98;;;5.28;;
41249;SDS011;26984;59.928;30.306;2023-05-14T15:52:11;29.90;;;13.95;;
41249;SDS011;26984;59.928;30.306;2023-05-14T15:54:40;6.78;;;5.38;;
41249;SDS011;26984;59.928;30.306;2023-05-14T15:57:08;6.75;;;5.07;;
41249;SDS011;26984;59.928;30.306;2023-05-14T15:59:36;9.38;;;4.72;;
41249;SDS011;26984;59.928;30.306;2023-05-14T16:02:04;8.93;;;5.65;;
41249;SDS011;26984;59.928;30.306;2023-05-14T16:04:33;12.30;;;6.45;;
41249;SDS011;26984;59.928;30.306;2023-05-14T16:07:01;7.85;;;4.93;;
41249;SDS011;26984;59.928;30.306;2023-05-14T16:09:31;10.25;;;5.35;;